createdAt,value
2017-07-09T00:00:04.197Z,18.34
2017-07-09T00:01:03.557Z,18.2
2017-07-09T00:02:04.243Z,18.19
2017-07-09T00:03:03.530Z,18.32
2017-07-09T00:04:03.754Z,18.23
2017-07-09T00:05:03.943Z,18.31
2017-07-09T00:06:03.819Z,18.29
2017-07-09T00:07:04.219Z,18.29
2017-07-09T00:08:03.879Z,18.29
2017-07-09T00:09:03.912Z,18.27
2017-07-09T00:10:03.643Z,18.23
2017-07-09T00:11:03.588Z,18.32
2017-07-09T00:12:03.535Z,18.32
2017-07-09T00:13:03.599Z,18.29
2017-07-09T00:14:03.553Z,18.21
2017-07-09T00:15:03.588Z,18.27
2017-07-09T00:16:03.498Z,18.21
2017-07-09T00:17:03.715Z,18.31
2017-07-09T00:18:03.637Z,18.21
2017-07-09T00:19:03.509Z,18.19
2017-07-09T00:20:03.834Z,18.19
2017-07-09T00:21:04.245Z,18.19
2017-07-09T00:22:03.921Z,18.19
2017-07-09T00:23:03.942Z,18.17
2017-07-09T00:24:03.539Z,18.2
2017-07-09T00:25:03.903Z,18.17
2017-07-09T00:26:03.863Z,18.13
2017-07-09T00:27:04.111Z,18.2
2017-07-09T00:28:04.507Z,18.11
2017-07-09T00:29:03.785Z,18.1
2017-07-09T00:30:03.444Z,18.1
2017-07-09T00:31:03.439Z,18.05
2017-07-09T00:32:03.434Z,18.06
2017-07-09T00:33:03.453Z,18.08
2017-07-09T00:34:04.116Z,18.14
2017-07-09T00:35:03.753Z,18.17
2017-07-09T00:36:03.789Z,18.17
2017-07-09T00:37:04.376Z,18.19
2017-07-09T00:38:04.274Z,18.14
2017-07-09T00:39:03.757Z,18.17
2017-07-09T00:40:03.436Z,18.2
2017-07-09T00:41:04.068Z,18.17
2017-07-09T00:42:04.312Z,18.17
2017-07-09T00:43:03.768Z,18.2
2017-07-09T00:44:03.759Z,18.14
2017-07-09T00:45:03.415Z,18.16
2017-07-09T00:46:03.670Z,18.19
2017-07-09T00:47:03.802Z,18.13
2017-07-09T00:48:03.746Z,18.17
2017-07-09T00:49:03.491Z,18.14
2017-07-09T00:50:03.422Z,18.16
2017-07-09T00:51:03.786Z,18.14
2017-07-09T00:52:04.050Z,18.19
2017-07-09T00:53:03.756Z,18.19
2017-07-09T00:54:03.732Z,18.19
2017-07-09T00:55:03.409Z,18.14
2017-07-09T00:56:04.098Z,18.2
2017-07-09T00:57:03.755Z,18.14
2017-07-09T00:58:03.587Z,18.2
2017-07-09T00:59:03.648Z,18.11
2017-07-09T01:00:03.735Z,18.17
2017-07-09T01:01:04.496Z,18.2
2017-07-09T01:02:03.725Z,18.13
2017-07-09T01:03:03.742Z,18.16
2017-07-09T01:04:03.479Z,18.16
2017-07-09T01:05:03.399Z,18.16
2017-07-09T01:06:04.075Z,18.24
2017-07-09T01:07:03.376Z,18.17
2017-07-09T01:08:03.444Z,18.19
2017-07-09T01:09:03.720Z,18.16
2017-07-09T01:10:03.862Z,18.19
2017-07-09T01:11:03.858Z,18.19
2017-07-09T01:12:03.491Z,18.17
2017-07-09T01:13:03.776Z,18.16
2017-07-09T01:14:04.234Z,18.19
2017-07-09T01:15:03.664Z,18.17
2017-07-09T01:16:04.080Z,18.13
2017-07-09T01:17:03.355Z,18.17
2017-07-09T01:18:03.434Z,18.19
2017-07-09T01:19:03.783Z,18.14
2017-07-09T01:20:03.414Z,18.2
2017-07-09T01:21:03.724Z,18.16
2017-07-09T01:22:03.888Z,18.2
2017-07-09T01:23:03.780Z,18.29
2017-07-09T01:24:03.722Z,18.32
2017-07-09T01:25:03.404Z,18.2
2017-07-09T01:26:03.459Z,18.27
2017-07-09T01:27:04.097Z,18.24
2017-07-09T01:28:03.981Z,18.23
2017-07-09T01:29:03.754Z,18.29
2017-07-09T01:30:03.452Z,18.34
2017-07-09T01:31:03.720Z,18.26
2017-07-09T01:32:03.387Z,18.31
2017-07-09T01:33:03.706Z,18.23
2017-07-09T01:34:03.671Z,18.2
2017-07-09T01:35:03.700Z,18.29
2017-07-09T01:36:03.581Z,18.32
2017-07-09T01:37:03.696Z,18.26
2017-07-09T01:38:03.661Z,18.32
2017-07-09T01:39:03.679Z,18.27
2017-07-09T01:40:03.703Z,18.24
2017-07-09T01:41:03.726Z,18.23
2017-07-09T01:42:04.088Z,18.29
2017-07-09T01:43:03.662Z,18.2
2017-07-09T01:44:03.674Z,18.2
2017-07-09T01:45:03.320Z,18.24
2017-07-09T01:46:03.412Z,18.34
2017-07-09T01:47:04.004Z,18.23
2017-07-09T01:48:03.345Z,18.26
2017-07-09T01:49:03.644Z,18.36
2017-07-09T01:50:03.744Z,18.23
2017-07-09T01:51:03.687Z,18.23
2017-07-09T01:52:03.876Z,18.32
2017-07-09T01:53:03.330Z,18.27
2017-07-09T01:54:03.642Z,18.35
2017-07-09T01:55:03.991Z,18.2
2017-07-09T01:56:03.389Z,18.23
2017-07-09T01:57:03.774Z,18.21
2017-07-09T01:58:03.647Z,18.23
2017-07-09T01:59:03.696Z,18.19
2017-07-09T02:00:03.618Z,18.19
2017-07-09T02:01:03.965Z,18.29
2017-07-09T02:02:03.253Z,18.17
2017-07-09T02:03:03.288Z,18.16
2017-07-09T02:04:03.286Z,18.23
2017-07-09T02:05:03.258Z,18.17
2017-07-09T02:06:03.286Z,18.19
2017-07-09T02:07:03.567Z,18.19
2017-07-09T02:08:03.627Z,18.1
2017-07-09T02:09:03.607Z,18.14
2017-07-09T02:10:03.588Z,18.02
2017-07-09T02:11:03.939Z,18.03
2017-07-09T02:12:03.253Z,17.98
2017-07-09T02:13:03.552Z,18.05
2017-07-09T02:14:03.802Z,17.94
2017-07-09T02:15:03.622Z,17.9
2017-07-09T02:16:03.608Z,17.9
2017-07-09T02:17:03.578Z,17.84
2017-07-09T02:18:03.941Z,17.79
2017-07-09T02:19:03.226Z,17.76
2017-07-09T02:20:03.856Z,17.69
2017-07-09T02:21:03.229Z,17.63
2017-07-09T02:22:03.330Z,17.73
2017-07-09T02:23:03.537Z,17.63
2017-07-09T02:24:03.937Z,17.54
2017-07-09T02:25:03.948Z,17.55
2017-07-09T02:26:03.213Z,17.58
2017-07-09T02:27:03.240Z,17.57
2017-07-09T02:28:03.504Z,17.5
2017-07-09T02:29:03.244Z,17.54
2017-07-09T02:30:03.306Z,17.47
2017-07-09T02:31:03.545Z,17.54
2017-07-09T02:32:03.269Z,17.57
2017-07-09T02:33:03.266Z,17.6
2017-07-09T02:34:03.868Z,17.57
2017-07-09T02:35:03.529Z,17.6
2017-07-09T02:36:03.198Z,17.63
2017-07-09T02:37:03.221Z,17.73
2017-07-09T02:38:03.208Z,17.68
2017-07-09T02:39:03.683Z,17.66
2017-07-09T02:40:03.577Z,17.76
2017-07-09T02:41:03.164Z,17.73
2017-07-09T02:42:03.538Z,17.71
2017-07-09T02:43:03.866Z,17.65
2017-07-09T02:44:03.222Z,17.55
2017-07-09T02:45:03.878Z,17.55
2017-07-09T02:46:03.523Z,17.58
2017-07-09T02:47:03.526Z,17.6
2017-07-09T02:48:03.740Z,17.49
2017-07-09T02:49:03.538Z,17.5
2017-07-09T02:50:03.581Z,17.46
2017-07-09T02:51:03.153Z,17.45
2017-07-09T02:52:03.147Z,17.3
2017-07-09T02:53:03.218Z,17.21
2017-07-09T02:54:03.203Z,17.27
2017-07-09T02:55:03.200Z,17.17
2017-07-09T02:56:03.265Z,17.2
2017-07-09T02:57:03.155Z,17.17
2017-07-09T02:58:03.144Z,17.18
2017-07-09T02:59:03.452Z,17.22
2017-07-09T03:00:03.350Z,17.17
2017-07-09T03:01:03.269Z,17.12
2017-07-09T03:02:03.186Z,17.13
2017-07-09T03:03:03.515Z,17.09
2017-07-09T03:04:03.169Z,17.22
2017-07-09T03:05:03.159Z,17.15
2017-07-09T03:06:03.871Z,17.17
2017-07-09T03:07:03.139Z,17.18
2017-07-09T03:08:03.175Z,17.17
2017-07-09T03:09:03.135Z,17.21
2017-07-09T03:10:03.492Z,17.24
2017-07-09T03:11:03.162Z,17.3
2017-07-09T03:12:03.179Z,17.2
2017-07-09T03:13:03.113Z,17.3
2017-07-09T03:14:03.078Z,17.39
2017-07-09T03:15:03.247Z,17.32
2017-07-09T03:16:03.071Z,17.35
2017-07-09T03:17:03.454Z,17.4
2017-07-09T03:18:03.103Z,17.45
2017-07-09T03:19:03.437Z,17.47
2017-07-09T03:20:03.442Z,17.54
2017-07-09T03:21:03.802Z,17.52
2017-07-09T03:22:03.458Z,17.54
2017-07-09T03:23:03.103Z,17.52
2017-07-09T03:24:03.124Z,17.5
2017-07-09T03:25:03.503Z,17.57
2017-07-09T03:26:03.081Z,17.58
2017-07-09T03:27:03.489Z,17.58
2017-07-09T03:28:03.740Z,17.54
2017-07-09T03:29:03.177Z,17.54
2017-07-09T03:30:03.098Z,17.6
2017-07-09T03:31:03.096Z,17.54
2017-07-09T03:32:03.617Z,17.55
2017-07-09T03:33:03.446Z,17.54
2017-07-09T03:34:03.090Z,17.57
2017-07-09T03:35:03.008Z,17.6
2017-07-09T03:36:03.034Z,17.58
2017-07-09T03:37:03.403Z,17.55
2017-07-09T03:38:03.369Z,17.65
2017-07-09T03:39:03.664Z,17.68
2017-07-09T03:40:03.382Z,17.63
2017-07-09T03:41:03.809Z,17.73
2017-07-09T03:42:03.536Z,17.71
2017-07-09T03:43:03.804Z,17.69
2017-07-09T03:44:03.034Z,17.71
2017-07-09T03:45:03.787Z,17.68
2017-07-09T03:46:03.084Z,17.86
2017-07-09T03:47:03.431Z,17.86
2017-07-09T03:48:03.028Z,17.86
2017-07-09T03:49:03.492Z,17.86
2017-07-09T03:50:03.029Z,17.86
2017-07-09T03:51:03.031Z,17.87
2017-07-09T03:52:03.162Z,17.86
2017-07-09T03:53:03.024Z,17.84
2017-07-09T03:54:03.321Z,17.87
2017-07-09T03:55:03.186Z,17.94
2017-07-09T03:56:03.667Z,17.96
2017-07-09T03:57:03.321Z,18.01
2017-07-09T03:58:03.124Z,18.08
2017-07-09T03:59:03.133Z,18.08
2017-07-09T04:00:03.348Z,18.14
2017-07-09T04:01:03.707Z,18.05
2017-07-09T04:02:03.659Z,18.19
2017-07-09T04:03:03.158Z,18.06
2017-07-09T04:04:02.971Z,18.16
2017-07-09T04:05:03.320Z,18.2
2017-07-09T04:06:03.011Z,18.19
2017-07-09T04:07:03.014Z,18.26
2017-07-09T04:08:03.408Z,18.24
2017-07-09T04:09:03.041Z,18.2
2017-07-09T04:10:03.141Z,18.23
2017-07-09T04:11:03.364Z,18.26
2017-07-09T04:12:03.728Z,18.23
2017-07-09T04:13:03.336Z,18.35
2017-07-09T04:14:03.383Z,18.26
2017-07-09T04:15:03.674Z,18.31
2017-07-09T04:16:03.291Z,18.35
2017-07-09T04:17:02.967Z,18.42
2017-07-09T04:18:03.010Z,18.38
2017-07-09T04:19:03.043Z,18.44
2017-07-09T04:20:03.268Z,18.44
2017-07-09T04:21:03.368Z,18.53
2017-07-09T04:22:03.102Z,18.47
2017-07-09T04:23:02.968Z,18.5
2017-07-09T04:24:03.293Z,18.5
2017-07-09T04:25:03.300Z,18.61
2017-07-09T04:26:02.910Z,18.63
2017-07-09T04:27:02.970Z,18.61
2017-07-09T04:28:02.935Z,18.65
2017-07-09T04:29:02.920Z,18.57
2017-07-09T04:30:03.270Z,18.65
2017-07-09T04:31:03.280Z,18.78
2017-07-09T04:32:02.942Z,18.76
2017-07-09T04:33:03.352Z,18.71
2017-07-09T04:34:02.962Z,18.76
2017-07-09T04:35:03.294Z,18.71
2017-07-09T04:36:03.300Z,18.69
2017-07-09T04:37:02.913Z,18.71
2017-07-09T04:38:03.314Z,18.69
2017-07-09T04:39:03.300Z,18.79
2017-07-09T04:40:03.292Z,18.79
2017-07-09T04:41:03.255Z,18.84
2017-07-09T04:42:02.931Z,18.87
2017-07-09T04:43:03.043Z,18.96
2017-07-09T04:44:03.600Z,18.97
2017-07-09T04:45:03.405Z,18.96
2017-07-09T04:46:02.909Z,18.94
2017-07-09T04:47:03.223Z,19.05
2017-07-09T04:48:02.886Z,19.1
2017-07-09T04:49:03.232Z,19.2
2017-07-09T04:50:02.960Z,19.2
2017-07-09T04:51:03.524Z,19.19
2017-07-09T04:52:03.597Z,19.24
2017-07-09T04:53:03.220Z,19.2
2017-07-09T04:54:03.327Z,19.24
2017-07-09T04:55:03.589Z,19.25
2017-07-09T04:56:03.281Z,19.32
2017-07-09T04:57:03.256Z,19.3
2017-07-09T04:58:03.212Z,19.3
2017-07-09T04:59:03.247Z,19.35
2017-07-09T05:00:02.869Z,19.38
2017-07-09T05:01:03.253Z,19.43
2017-07-09T05:02:02.911Z,19.5
2017-07-09T05:03:02.954Z,19.53
2017-07-09T05:04:03.537Z,19.47
2017-07-09T05:05:03.531Z,19.47
2017-07-09T05:06:03.197Z,19.42
2017-07-09T05:07:02.937Z,19.45
2017-07-09T05:08:02.874Z,19.46
2017-07-09T05:09:03.272Z,19.5
2017-07-09T05:10:03.016Z,19.57
2017-07-09T05:11:03.237Z,19.52
2017-07-09T05:12:02.941Z,19.6
2017-07-09T05:13:02.911Z,19.61
2017-07-09T05:14:02.864Z,19.65
2017-07-09T05:15:03.227Z,19.68
2017-07-09T05:16:02.898Z,19.72
2017-07-09T05:17:02.854Z,19.65
2017-07-09T05:18:03.207Z,19.72
2017-07-09T05:19:03.223Z,19.75
2017-07-09T05:20:03.313Z,19.78
2017-07-09T05:21:02.896Z,19.79
2017-07-09T05:22:03.195Z,19.83
2017-07-09T05:23:03.263Z,19.86
2017-07-09T05:24:02.873Z,19.86
2017-07-09T05:25:03.294Z,19.83
2017-07-09T05:26:02.850Z,19.83
2017-07-09T05:27:03.228Z,19.89
2017-07-09T05:28:02.877Z,19.97
2017-07-09T05:29:03.485Z,19.92
2017-07-09T05:30:02.888Z,19.98
2017-07-09T05:31:02.878Z,19.95
2017-07-09T05:32:03.281Z,20.05
2017-07-09T05:33:02.880Z,20.1
2017-07-09T05:34:03.059Z,20.02
2017-07-09T05:35:03.253Z,20.11
2017-07-09T05:36:03.468Z,20.02
2017-07-09T05:37:02.793Z,20.05
2017-07-09T05:38:02.835Z,20.04
2017-07-09T05:39:02.799Z,20.05
2017-07-09T05:40:03.321Z,20.11
2017-07-09T05:41:03.227Z,20
2017-07-09T05:42:03.248Z,19.97
2017-07-09T05:43:03.615Z,19.98
2017-07-09T05:44:03.563Z,20.02
2017-07-09T05:45:02.960Z,20.07
2017-07-09T05:46:02.872Z,20.08
2017-07-09T05:47:02.904Z,20.2
2017-07-09T05:48:03.166Z,20.16
2017-07-09T05:49:02.858Z,20.3
2017-07-09T05:50:03.600Z,20.29
2017-07-09T05:51:03.512Z,20.46
2017-07-09T05:52:02.863Z,20.42
2017-07-09T05:53:02.856Z,20.56
2017-07-09T05:54:02.825Z,20.64
2017-07-09T05:55:03.145Z,20.74
2017-07-09T05:56:03.754Z,20.79
2017-07-09T05:57:02.847Z,20.78
2017-07-09T05:58:02.861Z,20.83
2017-07-09T05:59:03.528Z,20.93
2017-07-09T06:00:02.864Z,21
2017-07-09T06:01:02.856Z,21.01
2017-07-09T06:02:03.240Z,21.03
2017-07-09T06:03:02.822Z,21
2017-07-09T06:04:03.045Z,21.03
2017-07-09T06:05:02.892Z,21.08
2017-07-09T06:06:02.867Z,21.06
2017-07-09T06:07:03.203Z,21.03
2017-07-09T06:08:03.625Z,21.16
2017-07-09T06:09:03.289Z,21.16
2017-07-09T06:10:02.817Z,21.25
2017-07-09T06:11:03.347Z,21.21
2017-07-09T06:12:03.498Z,21.27
2017-07-09T06:13:03.199Z,21.43
2017-07-09T06:14:03.172Z,21.4
2017-07-09T06:15:03.136Z,21.46
2017-07-09T06:16:03.153Z,21.52
2017-07-09T06:17:03.131Z,21.61
2017-07-09T06:18:02.829Z,21.61
2017-07-09T06:19:03.269Z,21.7
2017-07-09T06:20:02.832Z,21.59
2017-07-09T06:21:03.190Z,21.64
2017-07-09T06:22:03.491Z,21.66
2017-07-09T06:23:03.156Z,21.56
2017-07-09T06:24:03.138Z,21.55
2017-07-09T06:25:02.816Z,21.61
2017-07-09T06:26:02.878Z,21.52
2017-07-09T06:27:03.171Z,21.48
2017-07-09T06:28:02.957Z,21.58
2017-07-09T06:29:02.787Z,21.64
2017-07-09T06:30:03.484Z,21.67
2017-07-09T06:31:03.173Z,21.73
2017-07-09T06:32:02.901Z,21.82
2017-07-09T06:33:03.279Z,21.96
2017-07-09T06:34:02.845Z,22.22
2017-07-09T06:35:03.214Z,22.38
2017-07-09T06:36:03.157Z,22.42
2017-07-09T06:37:02.829Z,22.52
2017-07-09T06:38:02.827Z,22.6
2017-07-09T06:39:03.291Z,22.66
2017-07-09T06:40:02.846Z,22.67
2017-07-09T06:41:02.839Z,22.75
2017-07-09T06:42:03.158Z,22.69
2017-07-09T06:43:02.851Z,22.76
2017-07-09T06:44:03.243Z,22.71
2017-07-09T06:45:03.160Z,22.73
2017-07-09T06:46:02.910Z,22.81
2017-07-09T06:47:03.199Z,23.01
2017-07-09T06:48:02.929Z,23.34
2017-07-09T06:49:02.805Z,23.57
2017-07-09T06:50:02.842Z,23.52
2017-07-09T06:51:03.173Z,23.56
2017-07-09T06:52:02.949Z,23.4
2017-07-09T06:53:02.878Z,23.37
2017-07-09T06:54:02.855Z,23.26
2017-07-09T06:55:03.245Z,23.1
2017-07-09T06:56:02.871Z,23.1
2017-07-09T06:57:02.805Z,23.12
2017-07-09T06:58:02.919Z,23.4
2017-07-09T06:59:03.251Z,24.14
2017-07-09T07:00:03.494Z,24.93
2017-07-09T07:01:02.852Z,25.84
2017-07-09T07:02:03.559Z,26.69
2017-07-09T07:03:03.588Z,27.51
2017-07-09T07:04:03.256Z,28.33
2017-07-09T07:05:03.019Z,28.68
2017-07-09T07:06:03.519Z,29.13
2017-07-09T07:07:03.532Z,29.73
2017-07-09T07:08:03.585Z,30.44
2017-07-09T07:09:03.195Z,30.62
2017-07-09T07:10:03.282Z,30.48
2017-07-09T07:11:03.279Z,30.11
2017-07-09T07:12:03.255Z,29.76
2017-07-09T07:13:03.022Z,29.48
2017-07-09T07:14:02.881Z,29.32
2017-07-09T07:15:02.902Z,29.67
2017-07-09T07:16:02.908Z,30.25
2017-07-09T07:17:03.215Z,30.99
2017-07-09T07:18:02.856Z,31.19
2017-07-09T07:19:03.190Z,31.1
2017-07-09T07:20:03.548Z,31.06
2017-07-09T07:21:03.204Z,30.86
2017-07-09T07:22:03.531Z,30.6
2017-07-09T07:23:02.916Z,30.22
2017-07-09T07:24:03.384Z,29.75
2017-07-09T07:25:02.896Z,29.14
2017-07-09T07:26:02.919Z,28.79
2017-07-09T07:27:02.927Z,28.33
2017-07-09T07:28:02.914Z,27.96
2017-07-09T07:29:02.939Z,27.71
2017-07-09T07:30:03.583Z,27.52
2017-07-09T07:31:03.260Z,27.28
2017-07-09T07:32:03.273Z,26.97
2017-07-09T07:33:03.267Z,26.82
2017-07-09T07:34:02.946Z,26.76
2017-07-09T07:35:02.954Z,26.63
2017-07-09T07:36:03.323Z,26.75
2017-07-09T07:37:03.335Z,26.72
2017-07-09T07:38:03.009Z,26.76
2017-07-09T07:39:03.015Z,26.59
2017-07-09T07:40:03.352Z,26.6
2017-07-09T07:41:03.768Z,26.54
2017-07-09T07:42:02.997Z,26.61
2017-07-09T07:43:03.341Z,26.59
2017-07-09T07:44:03.059Z,26.45
2017-07-09T07:45:03.333Z,26.57
2017-07-09T07:46:03.423Z,26.52
2017-07-09T07:47:03.738Z,26.49
2017-07-09T07:48:03.058Z,26.6
2017-07-09T07:49:03.061Z,26.67
2017-07-09T07:50:03.423Z,26.79
2017-07-09T07:51:03.041Z,26.82
2017-07-09T07:52:03.409Z,26.87
2017-07-09T07:53:03.068Z,26.87
2017-07-09T07:54:03.101Z,26.75
2017-07-09T07:55:03.107Z,26.82
2017-07-09T07:56:03.457Z,26.91
2017-07-09T07:57:03.067Z,27.19
2017-07-09T07:58:03.176Z,27.31
2017-07-09T07:59:03.414Z,27.36
2017-07-09T08:00:03.423Z,27.24
2017-07-09T08:01:03.097Z,27.41
2017-07-09T08:02:03.751Z,27.89
2017-07-09T08:03:03.170Z,28.49
2017-07-09T08:04:03.102Z,29.35
2017-07-09T08:05:03.443Z,30.07
2017-07-09T08:06:03.170Z,30.26
2017-07-09T08:07:03.557Z,30.19
2017-07-09T08:08:03.473Z,29.91
2017-07-09T08:09:03.480Z,29.63
2017-07-09T08:10:04.030Z,29.1
2017-07-09T08:11:03.547Z,28.83
2017-07-09T08:12:03.478Z,28.54
2017-07-09T08:13:03.533Z,28.49
2017-07-09T08:14:03.222Z,28.31
2017-07-09T08:15:03.189Z,28.35
2017-07-09T08:16:03.267Z,28.46
2017-07-09T08:17:03.222Z,28.64
2017-07-09T08:18:03.212Z,28.94
2017-07-09T08:19:03.569Z,29.1
2017-07-09T08:20:03.558Z,29.3
2017-07-09T08:21:03.560Z,29.18
2017-07-09T08:22:03.654Z,29.28
2017-07-09T08:23:03.244Z,29.32
2017-07-09T08:24:03.255Z,29.15
2017-07-09T08:25:03.572Z,28.98
2017-07-09T08:26:03.627Z,28.75
2017-07-09T08:27:03.256Z,28.53
2017-07-09T08:28:03.272Z,28.67
2017-07-09T08:29:03.267Z,28.57
2017-07-09T08:30:03.576Z,28.42
2017-07-09T08:31:03.608Z,28.31
2017-07-09T08:32:03.249Z,28.26
2017-07-09T08:33:03.569Z,28.03
2017-07-09T08:34:03.295Z,27.84
2017-07-09T08:35:03.372Z,27.57
2017-07-09T08:36:03.657Z,27.37
2017-07-09T08:37:03.299Z,27.15
2017-07-09T08:38:03.295Z,27.06
2017-07-09T08:39:03.679Z,26.97
2017-07-09T08:40:03.678Z,26.94
2017-07-09T08:41:03.705Z,27.01
2017-07-09T08:42:03.328Z,27.04
2017-07-09T08:43:03.980Z,27.08
2017-07-09T08:44:03.316Z,26.94
2017-07-09T08:45:03.685Z,26.89
2017-07-09T08:46:03.707Z,26.86
2017-07-09T08:47:03.354Z,26.75
2017-07-09T08:48:03.681Z,26.76
2017-07-09T08:49:03.352Z,26.76
2017-07-09T08:50:03.368Z,26.78
2017-07-09T08:51:03.745Z,26.84
2017-07-09T08:52:03.372Z,26.81
2017-07-09T08:53:03.827Z,26.86
2017-07-09T08:54:03.723Z,26.86
2017-07-09T08:55:03.713Z,26.91
2017-07-09T08:56:04.223Z,26.96
2017-07-09T08:57:03.453Z,27.13
2017-07-09T08:58:04.070Z,27.26
2017-07-09T08:59:03.769Z,27.31
2017-07-09T09:00:03.478Z,27.53
2017-07-09T09:01:03.518Z,27.65
2017-07-09T09:02:03.740Z,27.71
2017-07-09T09:03:03.791Z,27.71
2017-07-09T09:04:03.497Z,27.81
2017-07-09T09:05:04.140Z,28.02
2017-07-09T09:06:03.887Z,28.03
2017-07-09T09:07:03.831Z,28.17
2017-07-09T09:08:03.815Z,28.41
2017-07-09T09:09:03.486Z,28.54
2017-07-09T09:10:03.449Z,28.7
2017-07-09T09:11:03.456Z,28.94
2017-07-09T09:12:03.864Z,29.06
2017-07-09T09:13:04.046Z,29.02
2017-07-09T09:14:03.482Z,29.13
2017-07-09T09:15:04.164Z,29.35
2017-07-09T09:16:03.470Z,29.43
2017-07-09T09:17:03.890Z,29.61
2017-07-09T09:18:03.497Z,29.57
2017-07-09T09:19:03.509Z,29.58
2017-07-09T09:20:03.519Z,29.42
2017-07-09T09:21:03.511Z,29.4
2017-07-09T09:22:03.541Z,29.33
2017-07-09T09:23:03.602Z,29.1
2017-07-09T09:24:03.546Z,29.06
2017-07-09T09:25:03.571Z,28.97
2017-07-09T09:26:03.632Z,28.94
2017-07-09T09:27:04.234Z,29.01
2017-07-09T09:28:03.547Z,28.86
2017-07-09T09:29:03.631Z,28.83
2017-07-09T09:30:03.960Z,28.92
2017-07-09T09:31:03.554Z,28.9
2017-07-09T09:32:03.946Z,28.85
2017-07-09T09:33:03.564Z,28.7
2017-07-09T09:34:04.312Z,28.58
2017-07-09T09:35:04.022Z,28.35
2017-07-09T09:36:03.668Z,28.16
2017-07-09T09:37:03.965Z,28.02
2017-07-09T09:38:03.639Z,28.02
2017-07-09T09:39:03.986Z,27.94
2017-07-09T09:40:04.002Z,27.94
2017-07-09T09:41:04.072Z,27.89
2017-07-09T09:42:03.637Z,27.9
2017-07-09T09:43:04.016Z,27.84
2017-07-09T09:44:03.673Z,27.72
2017-07-09T09:45:03.669Z,27.64
2017-07-09T09:46:03.942Z,27.65
2017-07-09T09:47:04.012Z,27.66
2017-07-09T09:48:04.021Z,27.65
2017-07-09T09:49:04.378Z,27.57
2017-07-09T09:50:03.724Z,27.64
2017-07-09T09:51:04.019Z,27.72
2017-07-09T09:52:04.064Z,27.8
2017-07-09T09:53:04.059Z,27.79
2017-07-09T09:54:04.055Z,28.01
2017-07-09T09:55:03.755Z,27.96
2017-07-09T09:56:04.044Z,28.05
2017-07-09T09:57:04.115Z,28.09
2017-07-09T09:58:03.734Z,28.2
2017-07-09T09:59:03.729Z,28.2
2017-07-09T10:00:04.063Z,28.17
2017-07-09T10:01:03.731Z,28.16
2017-07-09T10:02:04.046Z,28.18
2017-07-09T10:03:03.779Z,28.14
2017-07-09T10:04:03.739Z,28.18
2017-07-09T10:05:03.813Z,28.18
2017-07-09T10:06:03.876Z,28.23
2017-07-09T10:07:04.147Z,28.23
2017-07-09T10:08:04.109Z,28.31
2017-07-09T10:09:04.169Z,28.41
2017-07-09T10:10:04.210Z,28.41
2017-07-09T10:11:04.097Z,28.38
2017-07-09T10:12:03.836Z,28.38
2017-07-09T10:13:03.756Z,28.41
2017-07-09T10:14:04.122Z,28.45
2017-07-09T10:15:03.795Z,28.43
2017-07-09T10:16:03.850Z,28.33
2017-07-09T10:17:04.171Z,28.33
2017-07-09T10:18:04.523Z,28.28
2017-07-09T10:19:03.832Z,28.27
2017-07-09T10:20:04.161Z,28.31
2017-07-09T10:21:04.489Z,28.33
2017-07-09T10:22:04.512Z,28.33
2017-07-09T10:23:03.902Z,28.45
2017-07-09T10:24:04.202Z,28.41
2017-07-09T10:25:04.557Z,28.48
2017-07-09T10:26:03.984Z,28.48
2017-07-09T10:27:04.144Z,28.48
2017-07-09T10:28:03.892Z,28.57
2017-07-09T10:29:03.859Z,28.85
2017-07-09T10:30:04.225Z,28.94
2017-07-09T10:31:03.883Z,29.05
2017-07-09T10:32:04.196Z,29.29
2017-07-09T10:33:04.280Z,29.23
2017-07-09T10:34:04.277Z,29.14
2017-07-09T10:35:04.730Z,28.97
2017-07-09T10:36:04.256Z,28.78
2017-07-09T10:37:04.273Z,28.63
2017-07-09T10:38:04.766Z,28.46
2017-07-09T10:39:03.969Z,28.33
2017-07-09T10:40:04.247Z,28.26
2017-07-09T10:41:03.944Z,28.2
2017-07-09T10:42:04.310Z,28.16
2017-07-09T10:43:03.917Z,28.03
2017-07-09T10:44:04.030Z,27.98
2017-07-09T10:45:03.972Z,27.87
2017-07-09T10:46:04.682Z,27.86
2017-07-09T10:47:04.383Z,27.74
2017-07-09T10:48:03.953Z,27.68
2017-07-09T10:49:03.995Z,27.59
2017-07-09T10:50:04.041Z,27.42
2017-07-09T10:51:04.386Z,27.3
2017-07-09T10:52:04.420Z,27.23
2017-07-09T10:53:04.324Z,27.36
2017-07-09T10:54:04.390Z,27.31
2017-07-09T10:55:04.070Z,27.51
2017-07-09T10:56:04.370Z,27.55
2017-07-09T10:57:04.011Z,27.53
2017-07-09T10:58:04.031Z,27.43
2017-07-09T10:59:04.408Z,27.43
2017-07-09T11:00:04.724Z,27.43
2017-07-09T11:01:04.055Z,27.37
2017-07-09T11:02:04.427Z,27.55
2017-07-09T11:03:04.370Z,27.74
2017-07-09T11:04:04.419Z,27.8
2017-07-09T11:05:04.462Z,27.99
2017-07-09T11:06:04.265Z,27.96
2017-07-09T11:07:04.415Z,28.02
2017-07-09T11:08:04.390Z,28.06
2017-07-09T11:09:04.073Z,28.17
2017-07-09T11:10:04.400Z,28.18
2017-07-09T11:11:04.452Z,28.06
2017-07-09T11:12:04.076Z,28.18
2017-07-09T11:13:04.451Z,28.16
2017-07-09T11:14:04.102Z,28.24
2017-07-09T11:15:04.141Z,28.24
2017-07-09T11:16:04.422Z,28.35
2017-07-09T11:17:04.434Z,28.41
2017-07-09T11:18:04.161Z,28.41
2017-07-09T11:19:04.439Z,28.35
2017-07-09T11:20:04.821Z,28.42
2017-07-09T11:21:04.567Z,28.46
2017-07-09T11:22:04.329Z,28.49
2017-07-09T11:23:04.459Z,28.45
2017-07-09T11:24:04.436Z,28.42
2017-07-09T11:25:04.157Z,28.39
2017-07-09T11:26:04.176Z,28.48
2017-07-09T11:27:04.452Z,28.45
2017-07-09T11:28:04.242Z,28.45
2017-07-09T11:29:04.207Z,28.33
2017-07-09T11:30:04.858Z,28.38
2017-07-09T11:31:04.572Z,28.35
2017-07-09T11:32:04.575Z,28.36
2017-07-09T11:33:04.465Z,28.36
2017-07-09T11:34:04.429Z,28.35
2017-07-09T11:35:04.472Z,28.23
2017-07-09T11:36:04.805Z,28.24
2017-07-09T11:37:04.153Z,28.27
2017-07-09T11:38:04.158Z,28.33
2017-07-09T11:39:04.500Z,28.45
2017-07-09T11:40:04.169Z,28.48
2017-07-09T11:41:04.174Z,28.38
2017-07-09T11:42:04.504Z,28.48
2017-07-09T11:43:04.509Z,28.51
2017-07-09T11:44:04.536Z,28.57
2017-07-09T11:45:04.524Z,28.6
2017-07-09T11:46:04.205Z,28.54
2017-07-09T11:47:04.550Z,28.55
2017-07-09T11:48:04.211Z,28.54
2017-07-09T11:49:04.543Z,28.58
2017-07-09T11:50:04.219Z,28.42
2017-07-09T11:51:04.562Z,28.35
2017-07-09T11:52:04.241Z,28.39
2017-07-09T11:53:04.245Z,28.35
2017-07-09T11:54:04.569Z,28.21
2017-07-09T11:55:04.245Z,28.05
2017-07-09T11:56:04.251Z,27.93
2017-07-09T11:57:04.588Z,27.79
2017-07-09T11:58:04.615Z,27.59
2017-07-09T11:59:04.605Z,27.36
2017-07-09T12:00:04.279Z,27.19
2017-07-09T12:01:04.930Z,27.16
2017-07-09T12:02:04.282Z,27.26
2017-07-09T12:03:04.636Z,27.36
2017-07-09T12:04:04.623Z,27.42
2017-07-09T12:05:04.639Z,27.55
2017-07-09T12:06:04.644Z,27.71
2017-07-09T12:07:04.631Z,27.84
2017-07-09T12:08:04.639Z,27.98
2017-07-09T12:09:04.315Z,28.12
2017-07-09T12:10:04.339Z,28.21
2017-07-09T12:11:04.343Z,28.35
2017-07-09T12:12:04.657Z,28.36
2017-07-09T12:13:04.661Z,28.45
2017-07-09T12:14:04.993Z,28.55
2017-07-09T12:15:04.343Z,28.58
2017-07-09T12:16:04.352Z,28.72
2017-07-09T12:17:04.356Z,28.94
2017-07-09T12:18:04.688Z,28.98
2017-07-09T12:19:04.746Z,29.14
2017-07-09T12:20:04.833Z,29.24
2017-07-09T12:21:04.401Z,29.33
2017-07-09T12:22:04.804Z,29.24
2017-07-09T12:23:04.412Z,29.06
2017-07-09T12:24:04.879Z,29.05
2017-07-09T12:25:04.431Z,29.05
2017-07-09T12:26:04.806Z,29.06
2017-07-09T12:27:04.410Z,28.97
2017-07-09T12:28:04.787Z,28.86
2017-07-09T12:29:04.783Z,28.68
2017-07-09T12:30:04.826Z,28.58
2017-07-09T12:31:04.785Z,28.46
2017-07-09T12:32:05.207Z,28.28
2017-07-09T12:33:04.462Z,28.16
2017-07-09T12:34:04.516Z,28.03
2017-07-09T12:35:04.476Z,27.93
2017-07-09T12:36:04.526Z,27.87
2017-07-09T12:37:04.538Z,27.9
2017-07-09T12:38:04.545Z,27.98
2017-07-09T12:39:04.547Z,28.16
2017-07-09T12:40:04.838Z,28.3
2017-07-09T12:41:04.838Z,28.3
2017-07-09T12:42:04.887Z,28.33
2017-07-09T12:43:04.850Z,28.26
2017-07-09T12:44:04.583Z,28.12
2017-07-09T12:45:04.918Z,28.08
2017-07-09T12:46:04.591Z,28.01
2017-07-09T12:47:04.602Z,27.89
2017-07-09T12:48:04.561Z,27.99
2017-07-09T12:49:04.883Z,28.09
2017-07-09T12:50:04.911Z,28.09
2017-07-09T12:51:04.599Z,28.05
2017-07-09T12:52:04.705Z,27.89
2017-07-09T12:53:04.642Z,27.86
2017-07-09T12:54:04.617Z,27.69
2017-07-09T12:55:04.574Z,27.55